sensor_id;sensor_type;location;lat;lon;timestamp;P1;durP1;ratioP1;P2;durP2;ratioP2
76475;SDS011;65308;50.078;14.854;2023-03-08T00:01:12;6.88;;;3.83;;
76475;SDS011;65308;50.078;14.854;2023-03-08T00:36:50;6.38;;;3.88;;
76475;SDS011;65308;50.078;14.854;2023-03-08T00:39:19;8.98;;;4.43;;
76475;SDS011;65308;50.078;14.854;2023-03-08T00:41:47;8.88;;;3.90;;
76475;SDS011;65308;50.078;14.854;2023-03-08T00:44:15;7.55;;;4.03;;
76475;SDS011;65308;50.078;14.854;2023-03-08T00:49:18;8.38;;;4.70;;
76475;SDS011;65308;50.078;14.854;2023-03-08T00:56:55;9.50;;;4.43;;
76475;SDS011;65308;50.078;14.854;2023-03-08T00:59:23;8.50;;;4.07;;
76475;SDS011;65308;50.078;14.854;2023-03-08T01:01:51;7.88;;;4.20;;
76475;SDS011;65308;50.078;14.854;2023-03-08T01:04:22;11.75;;;4.93;;
76475;SDS011;65308;50.078;14.854;2023-03-08T01:14:45;7.95;;;4.18;;
76475;SDS011;65308;50.078;14.854;2023-03-08T01:17:12;8.43;;;4.00;;
76475;SDS011;65308;50.078;14.854;2023-03-08T01:19:40;7.88;;;4.10;;
76475;SDS011;65308;50.078;14.854;2023-03-08T01:22:08;10.15;;;4.90;;
76475;SDS011;65308;50.078;14.854;2023-03-08T01:24:38;8.10;;;4.10;;
76475;SDS011;65308;50.078;14.854;2023-03-08T01:29:35;8.18;;;4.35;;
76475;SDS011;65308;50.078;14.854;2023-03-08T01:44:53;8.48;;;5.13;;
76475;SDS011;65308;50.078;14.854;2023-03-08T01:47:28;9.63;;;5.03;;
76475;SDS011;65308;50.078;14.854;2023-03-08T02:41:43;8.45;;;4.80;;
76475;SDS011;65308;50.078;14.854;2023-03-08T02:44:10;9.30;;;4.43;;
76475;SDS011;65308;50.078;14.854;2023-03-08T02:46:36;9.48;;;5.50;;
76475;SDS011;65308;50.078;14.854;2023-03-08T02:49:04;9.43;;;5.22;;
76475;SDS011;65308;50.078;14.854;2023-03-08T02:51:30;9.88;;;4.82;;
76475;SDS011;65308;50.078;14.854;2023-03-08T02:54:00;8.93;;;4.80;;
76475;SDS011;65308;50.078;14.854;2023-03-08T02:56:30;7.32;;;4.35;;
76475;SDS011;65308;50.078;14.854;2023-03-08T04:14:10;3.45;;;1.92;;
76475;SDS011;65308;50.078;14.854;2023-03-08T04:26:41;3.90;;;2.10;;
76475;SDS011;65308;50.078;14.854;2023-03-08T04:35:20;5.80;;;2.30;;
76475;SDS011;65308;50.078;14.854;2023-03-08T04:37:50;3.92;;;2.40;;
76475;SDS011;65308;50.078;14.854;2023-03-08T04:42:48;4.32;;;2.30;;
76475;SDS011;65308;50.078;14.854;2023-03-08T04:45:18;5.35;;;2.30;;
76475;SDS011;65308;50.078;14.854;2023-03-08T04:47:47;4.72;;;2.35;;
76475;SDS011;65308;50.078;14.854;2023-03-08T04:50:16;4.60;;;2.50;;
76475;SDS011;65308;50.078;14.854;2023-03-08T04:52:45;4.70;;;2.55;;
76475;SDS011;65308;50.078;14.854;2023-03-08T04:55:18;4.63;;;2.55;;
76475;SDS011;65308;50.078;14.854;2023-03-08T04:57:48;6.55;;;2.53;;
76475;SDS011;65308;50.078;14.854;2023-03-08T05:00:15;6.28;;;2.90;;
76475;SDS011;65308;50.078;14.854;2023-03-08T05:08:04;6.18;;;3.03;;
76475;SDS011;65308;50.078;14.854;2023-03-08T05:10:31;6.53;;;3.10;;
76475;SDS011;65308;50.078;14.854;2023-03-08T05:13:02;6.22;;;3.35;;
76475;SDS011;65308;50.078;14.854;2023-03-08T05:15:47;6.82;;;3.13;;
76475;SDS011;65308;50.078;14.854;2023-03-08T05:18:14;6.10;;;3.03;;
76475;SDS011;65308;50.078;14.854;2023-03-08T05:20:42;5.32;;;2.65;;
76475;SDS011;65308;50.078;14.854;2023-03-08T05:25:54;8.82;;;3.03;;
76475;SDS011;65308;50.078;14.854;2023-03-08T05:28:22;6.28;;;2.97;;
76475;SDS011;65308;50.078;14.854;2023-03-08T05:31:06;4.97;;;2.90;;
76475;SDS011;65308;50.078;14.854;2023-03-08T05:34:11;5.25;;;2.70;;
76475;SDS011;65308;50.078;14.854;2023-03-08T05:37:10;4.43;;;2.60;;
76475;SDS011;65308;50.078;14.854;2023-03-08T05:39:38;4.43;;;2.58;;
76475;SDS011;65308;50.078;14.854;2023-03-08T05:44:39;4.70;;;2.60;;
76475;SDS011;65308;50.078;14.854;2023-03-08T05:47:19;5.28;;;2.80;;
76475;SDS011;65308;50.078;14.854;2023-03-08T05:54:56;4.65;;;2.28;;
76475;SDS011;65308;50.078;14.854;2023-03-08T05:57:25;3.60;;;2.30;;
76475;SDS011;65308;50.078;14.854;2023-03-08T05:59:54;10.73;;;2.63;;
76475;SDS011;65308;50.078;14.854;2023-03-08T06:02:35;4.55;;;2.47;;
76475;SDS011;65308;50.078;14.854;2023-03-08T06:05:03;4.03;;;2.40;;
76475;SDS011;65308;50.078;14.854;2023-03-08T06:07:32;4.10;;;2.30;;
76475;SDS011;65308;50.078;14.854;2023-03-08T06:09:59;5.47;;;2.70;;
76475;SDS011;65308;50.078;14.854;2023-03-08T06:12:29;5.00;;;2.53;;
76475;SDS011;65308;50.078;14.854;2023-03-08T06:45:15;4.63;;;2.40;;
76475;SDS011;65308;50.078;14.854;2023-03-08T06:47:43;5.00;;;2.28;;
76475;SDS011;65308;50.078;14.854;2023-03-08T06:50:10;5.30;;;2.90;;
76475;SDS011;65308;50.078;14.854;2023-03-08T06:52:43;20.38;;;7.82;;
76475;SDS011;65308;50.078;14.854;2023-03-08T06:55:11;14.05;;;6.15;;
76475;SDS011;65308;50.078;14.854;2023-03-08T06:57:41;15.63;;;7.63;;
76475;SDS011;65308;50.078;14.854;2023-03-08T07:20:22;8.88;;;4.28;;
76475;SDS011;65308;50.078;14.854;2023-03-08T07:22:51;11.38;;;6.13;;
76475;SDS011;65308;50.078;14.854;2023-03-08T07:25:22;6.13;;;3.92;;
76475;SDS011;65308;50.078;14.854;2023-03-08T07:27:51;6.88;;;3.40;;
76475;SDS011;65308;50.078;14.854;2023-03-08T07:30:18;4.60;;;2.80;;
76475;SDS011;65308;50.078;14.854;2023-03-08T07:32:48;11.10;;;4.15;;
76475;SDS011;65308;50.078;14.854;2023-03-08T07:45:21;7.82;;;4.50;;
76475;SDS011;65308;50.078;14.854;2023-03-08T07:47:55;8.63;;;4.38;;
76475;SDS011;65308;50.078;14.854;2023-03-08T08:06:14;6.93;;;4.20;;
76475;SDS011;65308;50.078;14.854;2023-03-08T08:08:46;8.30;;;4.55;;
76475;SDS011;65308;50.078;14.854;2023-03-08T08:11:27;8.23;;;4.50;;
76475;SDS011;65308;50.078;14.854;2023-03-08T08:14:16;9.18;;;4.95;;
76475;SDS011;65308;50.078;14.854;2023-03-08T08:16:45;9.55;;;5.03;;
76475;SDS011;65308;50.078;14.854;2023-03-08T08:19:17;9.35;;;4.97;;
76475;SDS011;65308;50.078;14.854;2023-03-08T08:22:12;8.98;;;5.22;;
76475;SDS011;65308;50.078;14.854;2023-03-08T08:24:39;10.88;;;4.90;;
76475;SDS011;65308;50.078;14.854;2023-03-08T08:27:10;9.77;;;4.90;;
76475;SDS011;65308;50.078;14.854;2023-03-08T08:29:40;9.52;;;5.32;;
76475;SDS011;65308;50.078;14.854;2023-03-08T08:32:10;7.30;;;4.53;;
76475;SDS011;65308;50.078;14.854;2023-03-08T08:34:41;8.35;;;4.78;;
76475;SDS011;65308;50.078;14.854;2023-03-08T08:47:19;10.27;;;5.18;;
76475;SDS011;65308;50.078;14.854;2023-03-08T08:49:49;8.50;;;4.50;;
76475;SDS011;65308;50.078;14.854;2023-03-08T08:52:21;9.35;;;5.18;;
76475;SDS011;65308;50.078;14.854;2023-03-08T08:54:48;8.05;;;4.82;;
76475;SDS011;65308;50.078;14.854;2023-03-08T08:57:25;8.70;;;4.75;;
76475;SDS011;65308;50.078;14.854;2023-03-08T08:59:54;8.07;;;5.10;;
76475;SDS011;65308;50.078;14.854;2023-03-08T09:07:32;9.95;;;5.22;;
76475;SDS011;65308;50.078;14.854;2023-03-08T09:10:01;8.38;;;4.95;;
76475;SDS011;65308;50.078;14.854;2023-03-08T09:12:32;8.98;;;5.85;;
76475;SDS011;65308;50.078;14.854;2023-03-08T09:15:01;9.43;;;5.85;;
76475;SDS011;65308;50.078;14.854;2023-03-08T09:17:35;11.80;;;6.45;;
76475;SDS011;65308;50.078;14.854;2023-03-08T09:20:03;9.38;;;5.88;;
76475;SDS011;65308;50.078;14.854;2023-03-08T09:27:40;7.82;;;5.15;;
76475;SDS011;65308;50.078;14.854;2023-03-08T09:30:16;8.18;;;5.45;;
76475;SDS011;65308;50.078;14.854;2023-03-08T09:32:44;9.23;;;5.80;;
76475;SDS011;65308;50.078;14.854;2023-03-08T09:35:11;8.40;;;5.55;;
76475;SDS011;65308;50.078;14.854;2023-03-08T09:40:16;10.52;;;5.72;;
76475;SDS011;65308;50.078;14.854;2023-03-08T10:26:43;8.80;;;5.35;;
76475;SDS011;65308;50.078;14.854;2023-03-08T10:29:12;9.32;;;5.60;;
76475;SDS011;65308;50.078;14.854;2023-03-08T10:31:44;8.77;;;5.25;;
76475;SDS011;65308;50.078;14.854;2023-03-08T10:34:12;9.20;;;5.32;;
76475;SDS011;65308;50.078;14.854;2023-03-08T10:36:47;9.30;;;5.57;;
76475;SDS011;65308;50.078;14.854;2023-03-08T10:39:16;9.00;;;5.13;;
76475;SDS011;65308;50.078;14.854;2023-03-08T10:46:59;13.05;;;7.00;;
76475;SDS011;65308;50.078;14.854;2023-03-08T10:49:33;13.48;;;7.35;;
76475;SDS011;65308;50.078;14.854;2023-03-08T10:52:04;10.68;;;6.32;;
76475;SDS011;65308;50.078;14.854;2023-03-08T10:54:35;10.15;;;5.95;;
76475;SDS011;65308;50.078;14.854;2023-03-08T10:57:04;10.38;;;6.00;;
76475;SDS011;65308;50.078;14.854;2023-03-08T10:59:49;10.93;;;6.35;;
76475;SDS011;65308;50.078;14.854;2023-03-08T11:02:20;11.68;;;6.78;;
76475;SDS011;65308;50.078;14.854;2023-03-08T11:04:49;11.10;;;5.95;;
76475;SDS011;65308;50.078;14.854;2023-03-08T11:07:22;10.20;;;6.22;;
76475;SDS011;65308;50.078;14.854;2023-03-08T11:10:03;10.25;;;5.88;;
76475;SDS011;65308;50.078;14.854;2023-03-08T11:12:45;8.68;;;4.78;;
76475;SDS011;65308;50.078;14.854;2023-03-08T11:15:16;13.73;;;6.57;;
76475;SDS011;65308;50.078;14.854;2023-03-08T11:17:50;9.23;;;5.60;;
76475;SDS011;65308;50.078;14.854;2023-03-08T11:20:24;9.18;;;5.40;;
76475;SDS011;65308;50.078;14.854;2023-03-08T11:22:59;10.80;;;5.55;;
76475;SDS011;65308;50.078;14.854;2023-03-08T11:25:43;8.82;;;5.55;;
76475;SDS011;65308;50.078;14.854;2023-03-08T11:28:28;7.82;;;4.75;;
76475;SDS011;65308;50.078;14.854;2023-03-08T11:31:09;9.55;;;4.90;;
76475;SDS011;65308;50.078;14.854;2023-03-08T11:44:02;10.25;;;5.55;;
76475;SDS011;65308;50.078;14.854;2023-03-08T11:46:41;13.82;;;5.43;;
76475;SDS011;65308;50.078;14.854;2023-03-08T11:51:57;9.38;;;5.00;;
76475;SDS011;65308;50.078;14.854;2023-03-08T11:55:03;8.70;;;4.93;;
76475;SDS011;65308;50.078;14.854;2023-03-08T11:57:46;9.02;;;5.20;;
76475;SDS011;65308;50.078;14.854;2023-03-08T12:00:31;8.23;;;4.97;;
76475;SDS011;65308;50.078;14.854;2023-03-08T12:03:05;8.40;;;5.18;;
76475;SDS011;65308;50.078;14.854;2023-03-08T12:05:42;11.30;;;6.57;;
76475;SDS011;65308;50.078;14.854;2023-03-08T12:08:14;13.27;;;7.03;;
76475;SDS011;65308;50.078;14.854;2023-03-08T12:10:50;11.00;;;5.82;;
76475;SDS011;65308;50.078;14.854;2023-03-08T12:13:23;9.32;;;5.10;;
76475;SDS011;65308;50.078;14.854;2023-03-08T12:20:56;15.35;;;8.05;;
76475;SDS011;65308;50.078;14.854;2023-03-08T12:23:29;14.82;;;7.38;;
76475;SDS011;65308;50.078;14.854;2023-03-08T12:26:02;10.15;;;6.28;;
76475;SDS011;65308;50.078;14.854;2023-03-08T12:28:33;12.48;;;6.97;;
76475;SDS011;65308;50.078;14.854;2023-03-08T12:31:07;22.65;;;11.38;;
76475;SDS011;65308;50.078;14.854;2023-03-08T12:33:49;11.70;;;6.70;;
76475;SDS011;65308;50.078;14.854;2023-03-08T12:41:22;13.63;;;5.88;;
76475;SDS011;65308;50.078;14.854;2023-03-08T12:43:57;9.70;;;5.57;;
76475;SDS011;65308;50.078;14.854;2023-03-08T12:46:25;10.05;;;4.75;;
76475;SDS011;65308;50.078;14.854;2023-03-08T12:48:51;9.25;;;5.32;;
76475;SDS011;65308;50.078;14.854;2023-03-08T12:51:19;10.02;;;6.20;;
76475;SDS011;65308;50.078;14.854;2023-03-08T12:53:57;8.88;;;5.13;;
76475;SDS011;65308;50.078;14.854;2023-03-08T12:58:59;8.25;;;4.80;;
76475;SDS011;65308;50.078;14.854;2023-03-08T13:01:32;9.05;;;4.95;;
76475;SDS011;65308;50.078;14.854;2023-03-08T13:04:25;8.00;;;4.85;;
76475;SDS011;65308;50.078;14.854;2023-03-08T13:06:59;9.45;;;5.35;;
76475;SDS011;65308;50.078;14.854;2023-03-08T13:09:33;10.32;;;5.00;;
76475;SDS011;65308;50.078;14.854;2023-03-08T13:12:11;9.05;;;5.43;;
76475;SDS011;65308;50.078;14.854;2023-03-08T13:14:57;9.60;;;5.63;;
76475;SDS011;65308;50.078;14.854;2023-03-08T13:17:33;11.50;;;5.47;;
76475;SDS011;65308;50.078;14.854;2023-03-08T13:20:08;14.35;;;7.45;;
76475;SDS011;65308;50.078;14.854;2023-03-08T13:22:43;12.93;;;6.60;;
76475;SDS011;65308;50.078;14.854;2023-03-08T13:25:21;16.30;;;8.32;;
76475;SDS011;65308;50.078;14.854;2023-03-08T13:27:57;15.57;;;8.20;;
76475;SDS011;65308;50.078;14.854;2023-03-08T13:30:31;14.10;;;8.10;;
76475;SDS011;65308;50.078;14.854;2023-03-08T13:33:05;11.52;;;5.25;;
76475;SDS011;65308;50.078;14.854;2023-03-08T13:35:36;9.35;;;5.47;;
76475;SDS011;65308;50.078;14.854;2023-03-08T13:38:15;9.30;;;5.45;;
76475;SDS011;65308;50.078;14.854;2023-03-08T13:40:51;10.43;;;5.53;;
76475;SDS011;65308;50.078;14.854;2023-03-08T13:43:19;11.30;;;5.97;;
76475;SDS011;65308;50.078;14.854;2023-03-08T13:48:29;11.65;;;6.03;;
76475;SDS011;65308;50.078;14.854;2023-03-08T13:50:59;10.73;;;5.95;;
76475;SDS011;65308;50.078;14.854;2023-03-08T13:55:55;9.65;;;5.28;;
76475;SDS011;65308;50.078;14.854;2023-03-08T13:58:25;9.85;;;5.40;;
76475;SDS011;65308;50.078;14.854;2023-03-08T14:00:57;10.20;;;5.38;;
76475;SDS011;65308;50.078;14.854;2023-03-08T14:03:25;12.32;;;6.60;;
76475;SDS011;65308;50.078;14.854;2023-03-08T14:05:55;10.18;;;5.82;;
76475;SDS011;65308;50.078;14.854;2023-03-08T14:08:24;12.05;;;6.20;;
76475;SDS011;65308;50.078;14.854;2023-03-08T14:13:49;10.00;;;5.68;;
76475;SDS011;65308;50.078;14.854;2023-03-08T14:16:24;11.13;;;5.28;;
76475;SDS011;65308;50.078;14.854;2023-03-08T14:18:58;8.95;;;5.47;;
76475;SDS011;65308;50.078;14.854;2023-03-08T14:21:45;12.73;;;6.80;;
76475;SDS011;65308;50.078;14.854;2023-03-08T14:24:14;11.68;;;7.72;;
76475;SDS011;65308;50.078;14.854;2023-03-08T14:26:52;20.95;;;10.52;;
76475;SDS011;65308;50.078;14.854;2023-03-08T14:29:25;10.55;;;5.97;;
76475;SDS011;65308;50.078;14.854;2023-03-08T14:32:02;11.70;;;6.20;;
76475;SDS011;65308;50.078;14.854;2023-03-08T14:34:50;13.80;;;7.20;;
76475;SDS011;65308;50.078;14.854;2023-03-08T14:37:19;13.00;;;6.78;;
76475;SDS011;65308;50.078;14.854;2023-03-08T14:39:52;41.97;;;21.55;;
76475;SDS011;65308;50.078;14.854;2023-03-08T14:44:52;18.25;;;10.85;;
76475;SDS011;65308;50.078;14.854;2023-03-08T14:47:23;14.80;;;8.25;;
76475;SDS011;65308;50.078;14.854;2023-03-08T14:49:59;14.25;;;7.82;;
76475;SDS011;65308;50.078;14.854;2023-03-08T14:55:21;10.68;;;6.25;;
76475;SDS011;65308;50.078;14.854;2023-03-08T14:57:51;13.68;;;6.57;;
76475;SDS011;65308;50.078;14.854;2023-03-08T15:00:22;10.48;;;5.80;;
76475;SDS011;65308;50.078;14.854;2023-03-08T15:02:51;10.57;;;6.32;;
76475;SDS011;65308;50.078;14.854;2023-03-08T15:05:20;11.63;;;6.72;;
76475;SDS011;65308;50.078;14.854;2023-03-08T15:07:52;13.23;;;6.43;;
76475;SDS011;65308;50.078;14.854;2023-03-08T15:15:40;13.90;;;7.07;;
76475;SDS011;65308;50.078;14.854;2023-03-08T15:18:07;13.35;;;7.20;;
76475;SDS011;65308;50.078;14.854;2023-03-08T15:20:34;11.85;;;6.80;;
76475;SDS011;65308;50.078;14.854;2023-03-08T15:23:03;11.18;;;6.43;;
76475;SDS011;65308;50.078;14.854;2023-03-08T15:25:32;12.52;;;6.78;;
76475;SDS011;65308;50.078;14.854;2023-03-08T15:28:01;12.88;;;7.20;;
76475;SDS011;65308;50.078;14.854;2023-03-08T15:30:30;12.80;;;7.53;;
76475;SDS011;65308;50.078;14.854;2023-03-08T15:32:57;13.05;;;7.85;;
76475;SDS011;65308;50.078;14.854;2023-03-08T15:35:26;17.00;;;8.40;;
76475;SDS011;65308;50.078;14.854;2023-03-08T15:37:52;14.32;;;8.35;;
76475;SDS011;65308;50.078;14.854;2023-03-08T15:40:20;18.65;;;9.48;;
76475;SDS011;65308;50.078;14.854;2023-03-08T15:42:48;21.98;;;10.55;;
76475;SDS011;65308;50.078;14.854;2023-03-08T15:45:14;20.02;;;10.30;;
76475;SDS011;65308;50.078;14.854;2023-03-08T15:47:43;17.52;;;9.52;;
76475;SDS011;65308;50.078;14.854;2023-03-08T15:50:14;16.05;;;8.95;;
76475;SDS011;65308;50.078;14.854;2023-03-08T15:52:42;15.23;;;9.18;;
76475;SDS011;65308;50.078;14.854;2023-03-08T15:55:09;16.88;;;9.23;;
76475;SDS011;65308;50.078;14.854;2023-03-08T15:57:38;19.70;;;10.02;;
76475;SDS011;65308;50.078;14.854;2023-03-08T16:00:08;16.88;;;9.35;;
76475;SDS011;65308;50.078;14.854;2023-03-08T16:13:03;14.82;;;7.70;;
76475;SDS011;65308;50.078;14.854;2023-03-08T16:15:30;15.73;;;8.77;;
76475;SDS011;65308;50.078;14.854;2023-03-08T16:17:58;15.88;;;8.40;;
76475;SDS011;65308;50.078;14.854;2023-03-08T16:20:29;20.80;;;11.52;;
76475;SDS011;65308;50.078;14.854;2023-03-08T16:23:02;20.85;;;12.15;;
76475;SDS011;65308;50.078;14.854;2023-03-08T16:25:35;18.02;;;11.60;;
76475;SDS011;65308;50.078;14.854;2023-03-08T16:30:45;17.30;;;11.85;;
76475;SDS011;65308;50.078;14.854;2023-03-08T16:33:13;18.25;;;11.60;;
76475;SDS011;65308;50.078;14.854;2023-03-08T16:35:46;18.58;;;11.75;;
76475;SDS011;65308;50.078;14.854;2023-03-08T16:38:18;24.58;;;14.48;;
76475;SDS011;65308;50.078;14.854;2023-03-08T16:40:46;24.85;;;16.00;;
76475;SDS011;65308;50.078;14.854;2023-03-08T16:43:17;66.55;;;35.00;;
76475;SDS011;65308;50.078;14.854;2023-03-08T16:45:55;31.60;;;17.67;;
76475;SDS011;65308;50.078;14.854;2023-03-08T16:48:23;24.75;;;15.32;;
76475;SDS011;65308;50.078;14.854;2023-03-08T16:50:51;26.70;;;16.17;;
76475;SDS011;65308;50.078;14.854;2023-03-08T16:53:21;22.67;;;14.23;;
76475;SDS011;65308;50.078;14.854;2023-03-08T16:56:02;22.55;;;13.27;;
76475;SDS011;65308;50.078;14.854;2023-03-08T16:58:33;30.88;;;20.85;;
76475;SDS011;65308;50.078;14.854;2023-03-08T17:01:01;51.25;;;31.00;;
76475;SDS011;65308;50.078;14.854;2023-03-08T17:03:35;24.55;;;14.48;;
76475;SDS011;65308;50.078;14.854;2023-03-08T17:06:05;25.13;;;14.40;;
76475;SDS011;65308;50.078;14.854;2023-03-08T17:11:08;24.38;;;13.50;;
76475;SDS011;65308;50.078;14.854;2023-03-08T17:13:40;26.05;;;15.40;;
76475;SDS011;65308;50.078;14.854;2023-03-08T17:18:39;37.70;;;25.00;;
76475;SDS011;65308;50.078;14.854;2023-03-08T17:21:07;24.30;;;13.40;;
76475;SDS011;65308;50.078;14.854;2023-03-08T17:23:35;20.52;;;12.02;;
76475;SDS011;65308;50.078;14.854;2023-03-08T17:26:02;28.77;;;15.75;;
76475;SDS011;65308;50.078;14.854;2023-03-08T17:28:33;26.85;;;14.50;;
76475;SDS011;65308;50.078;14.854;2023-03-08T17:31:05;26.40;;;14.60;;
76475;SDS011;65308;50.078;14.854;2023-03-08T17:33:36;36.88;;;17.83;;
76475;SDS011;65308;50.078;14.854;2023-03-08T17:36:07;70.50;;;33.70;;
76475;SDS011;65308;50.078;14.854;2023-03-08T17:38:50;47.13;;;25.23;;
76475;SDS011;65308;50.078;14.854;2023-03-08T17:41:18;72.43;;;36.05;;
76475;SDS011;65308;50.078;14.854;2023-03-08T17:43:47;102.55;;;54.40;;
76475;SDS011;65308;50.078;14.854;2023-03-08T17:46:15;98.28;;;48.03;;
76475;SDS011;65308;50.078;14.854;2023-03-08T17:48:46;101.80;;;47.42;;
76475;SDS011;65308;50.078;14.854;2023-03-08T17:51:16;86.18;;;40.13;;
76475;SDS011;65308;50.078;14.854;2023-03-08T17:53:44;41.65;;;21.52;;
76475;SDS011;65308;50.078;14.854;2023-03-08T17:56:25;32.80;;;18.17;;
76475;SDS011;65308;50.078;14.854;2023-03-08T17:58:57;25.33;;;14.60;;
76475;SDS011;65308;50.078;14.854;2023-03-08T18:01:27;24.33;;;14.43;;
76475;SDS011;65308;50.078;14.854;2023-03-08T18:04:09;25.08;;;15.35;;
76475;SDS011;65308;50.078;14.854;2023-03-08T18:09:22;25.92;;;18.25;;
76475;SDS011;65308;50.078;14.854;2023-03-08T18:11:49;26.75;;;18.00;;
76475;SDS011;65308;50.078;14.854;2023-03-08T18:14:17;27.17;;;17.35;;
76475;SDS011;65308;50.078;14.854;2023-03-08T18:16:46;27.02;;;18.25;;
76475;SDS011;65308;50.078;14.854;2023-03-08T18:19:15;21.45;;;14.73;;
76475;SDS011;65308;50.078;14.854;2023-03-08T18:21:45;27.48;;;16.92;;
76475;SDS011;65308;50.078;14.854;2023-03-08T18:29:32;29.80;;;17.08;;
76475;SDS011;65308;50.078;14.854;2023-03-08T18:32:04;28.02;;;18.20;;
76475;SDS011;65308;50.078;14.854;2023-03-08T18:34:39;30.40;;;17.73;;
76475;SDS011;65308;50.078;14.854;2023-03-08T18:37:11;29.02;;;18.65;;
76475;SDS011;65308;50.078;14.854;2023-03-08T18:42:09;27.23;;;17.83;;
76475;SDS011;65308;50.078;14.854;2023-03-08T18:49:40;27.85;;;16.58;;
76475;SDS011;65308;50.078;14.854;2023-03-08T18:52:07;28.50;;;19.40;;
76475;SDS011;65308;50.078;14.854;2023-03-08T18:57:13;40.38;;;22.55;;
76475;SDS011;65308;50.078;14.854;2023-03-08T18:59:44;28.63;;;16.35;;
76475;SDS011;65308;50.078;14.854;2023-03-08T19:02:11;22.15;;;14.38;;
76475;SDS011;65308;50.078;14.854;2023-03-08T19:07:21;21.42;;;12.40;;
76475;SDS011;65308;50.078;14.854;2023-03-08T19:09:48;21.65;;;13.18;;
76475;SDS011;65308;50.078;14.854;2023-03-08T19:12:20;22.27;;;13.95;;
76475;SDS011;65308;50.078;14.854;2023-03-08T19:14:50;18.52;;;10.15;;
76475;SDS011;65308;50.078;14.854;2023-03-08T19:17:20;19.95;;;11.70;;
76475;SDS011;65308;50.078;14.854;2023-03-08T19:19:48;17.85;;;10.85;;
76475;SDS011;65308;50.078;14.854;2023-03-08T19:22:15;14.95;;;9.88;;
76475;SDS011;65308;50.078;14.854;2023-03-08T19:24:43;16.52;;;10.48;;
76475;SDS011;65308;50.078;14.854;2023-03-08T19:27:10;16.52;;;9.95;;
76475;SDS011;65308;50.078;14.854;2023-03-08T19:29:36;17.23;;;11.40;;
76475;SDS011;65308;50.078;14.854;2023-03-08T19:32:04;17.10;;;11.43;;
76475;SDS011;65308;50.078;14.854;2023-03-08T19:34:32;17.85;;;10.18;;
76475;SDS011;65308;50.078;14.854;2023-03-08T19:37:01;14.95;;;10.32;;
76475;SDS011;65308;50.078;14.854;2023-03-08T19:39:30;15.07;;;9.85;;
76475;SDS011;65308;50.078;14.854;2023-03-08T19:42:15;54.25;;;27.27;;
76475;SDS011;65308;50.078;14.854;2023-03-08T19:44:43;24.30;;;14.00;;
76475;SDS011;65308;50.078;14.854;2023-03-08T19:47:12;16.35;;;9.43;;
76475;SDS011;65308;50.078;14.854;2023-03-08T19:49:39;21.67;;;12.65;;
76475;SDS011;65308;50.078;14.854;2023-03-08T19:52:07;35.47;;;17.83;;
76475;SDS011;65308;50.078;14.854;2023-03-08T19:54:35;25.40;;;15.60;;
76475;SDS011;65308;50.078;14.854;2023-03-08T19:57:03;26.35;;;15.35;;
76475;SDS011;65308;50.078;14.854;2023-03-08T19:59:31;23.98;;;12.98;;
76475;SDS011;65308;50.078;14.854;2023-03-08T20:02:00;24.60;;;15.02;;
76475;SDS011;65308;50.078;14.854;2023-03-08T20:04:27;37.03;;;21.05;;
76475;SDS011;65308;50.078;14.854;2023-03-08T20:06:56;27.45;;;15.82;;
76475;SDS011;65308;50.078;14.854;2023-03-08T20:09:24;25.60;;;14.68;;
76475;SDS011;65308;50.078;14.854;2023-03-08T20:11:52;23.33;;;13.63;;
76475;SDS011;65308;50.078;14.854;2023-03-08T20:14:19;19.15;;;12.18;;
76475;SDS011;65308;50.078;14.854;2023-03-08T20:16:48;17.88;;;11.15;;
76475;SDS011;65308;50.078;14.854;2023-03-08T20:19:15;17.20;;;10.30;;
76475;SDS011;65308;50.078;14.854;2023-03-08T20:21:42;18.42;;;10.73;;
76475;SDS011;65308;50.078;14.854;2023-03-08T20:24:09;22.25;;;13.52;;
76475;SDS011;65308;50.078;14.854;2023-03-08T20:26:36;22.23;;;14.27;;
76475;SDS011;65308;50.078;14.854;2023-03-08T20:29:03;27.50;;;15.10;;
76475;SDS011;65308;50.078;14.854;2023-03-08T20:31:30;24.42;;;15.27;;
76475;SDS011;65308;50.078;14.854;2023-03-08T20:33:59;27.85;;;17.58;;
76475;SDS011;65308;50.078;14.854;2023-03-08T20:36:26;28.52;;;17.17;;
76475;SDS011;65308;50.078;14.854;2023-03-08T20:38:53;28.17;;;16.58;;
76475;SDS011;65308;50.078;14.854;2023-03-08T20:41:21;30.25;;;16.52;;
76475;SDS011;65308;50.078;14.854;2023-03-08T20:43:48;28.65;;;16.33;;
76475;SDS011;65308;50.078;14.854;2023-03-08T20:46:17;30.42;;;17.13;;
76475;SDS011;65308;50.078;14.854;2023-03-08T20:49:18;33.03;;;17.75;;
76475;SDS011;65308;50.078;14.854;2023-03-08T20:51:46;33.13;;;18.67;;
76475;SDS011;65308;50.078;14.854;2023-03-08T20:54:15;31.52;;;18.30;;
76475;SDS011;65308;50.078;14.854;2023-03-08T20:56:43;30.55;;;17.65;;
76475;SDS011;65308;50.078;14.854;2023-03-08T20:59:10;29.75;;;17.75;;
76475;SDS011;65308;50.078;14.854;2023-03-08T21:01:40;27.00;;;15.77;;
76475;SDS011;65308;50.078;14.854;2023-03-08T21:04:09;32.28;;;17.17;;
76475;SDS011;65308;50.078;14.854;2023-03-08T21:09:05;30.88;;;17.58;;
76475;SDS011;65308;50.078;14.854;2023-03-08T21:11:32;30.75;;;18.20;;
76475;SDS011;65308;50.078;14.854;2023-03-08T21:13:59;34.15;;;20.63;;
76475;SDS011;65308;50.078;14.854;2023-03-08T21:16:27;34.08;;;19.85;;
76475;SDS011;65308;50.078;14.854;2023-03-08T21:18:58;35.95;;;19.73;;
76475;SDS011;65308;50.078;14.854;2023-03-08T21:21:36;33.85;;;19.00;;
76475;SDS011;65308;50.078;14.854;2023-03-08T21:24:09;33.28;;;18.92;;
76475;SDS011;65308;50.078;14.854;2023-03-08T21:26:39;38.40;;;21.30;;
76475;SDS011;65308;50.078;14.854;2023-03-08T21:29:07;34.55;;;19.70;;
76475;SDS011;65308;50.078;14.854;2023-03-08T21:31:38;34.97;;;19.23;;
76475;SDS011;65308;50.078;14.854;2023-03-08T21:34:10;32.78;;;17.80;;
76475;SDS011;65308;50.078;14.854;2023-03-08T21:36:39;36.30;;;21.33;;
76475;SDS011;65308;50.078;14.854;2023-03-08T21:39:07;33.17;;;19.00;;
76475;SDS011;65308;50.078;14.854;2023-03-08T21:41:36;31.92;;;18.50;;
76475;SDS011;65308;50.078;14.854;2023-03-08T21:44:04;34.50;;;19.52;;
76475;SDS011;65308;50.078;14.854;2023-03-08T21:46:34;30.63;;;17.25;;
76475;SDS011;65308;50.078;14.854;2023-03-08T21:49:01;33.45;;;17.88;;
76475;SDS011;65308;50.078;14.854;2023-03-08T21:51:28;34.10;;;18.77;;
76475;SDS011;65308;50.078;14.854;2023-03-08T21:53:58;33.08;;;18.40;;
76475;SDS011;65308;50.078;14.854;2023-03-08T21:56:27;35.65;;;20.13;;
76475;SDS011;65308;50.078;14.854;2023-03-08T21:58:54;34.53;;;20.67;;
76475;SDS011;65308;50.078;14.854;2023-03-08T22:01:22;31.75;;;19.38;;
76475;SDS011;65308;50.078;14.854;2023-03-08T22:03:51;28.75;;;17.42;;
76475;SDS011;65308;50.078;14.854;2023-03-08T22:08:45;30.45;;;17.48;;
76475;SDS011;65308;50.078;14.854;2023-03-08T22:13:45;34.33;;;18.83;;
76475;SDS011;65308;50.078;14.854;2023-03-08T22:16:14;31.00;;;17.85;;
76475;SDS011;65308;50.078;14.854;2023-03-08T22:18:40;32.17;;;18.55;;
76475;SDS011;65308;50.078;14.854;2023-03-08T22:21:07;31.92;;;18.85;;
76475;SDS011;65308;50.078;14.854;2023-03-08T22:23:34;32.45;;;19.33;;
76475;SDS011;65308;50.078;14.854;2023-03-08T22:26:02;33.90;;;19.45;;
76475;SDS011;65308;50.078;14.854;2023-03-08T22:28:32;31.40;;;17.20;;